SWA3608 KOKC-KAUS
Flight info
| Callsign | SWA3608 |
|---|---|
| Flight time | 0h 51m |
| Altitude | 39000 |
| Route | N0439F390 MUDDE3 MOOSE DCT BROBB/N0438F380 DCT WINDU SEWZY6 |
| Aircraft | B737/M-SDE2E3FGHIRWXY/LB1 |
Departure
| Time | 2026-04-08 19:50 |
|---|---|
| Airport | OKC Will Rogers World Airport (KOKC) |
Arrival
| Time | 2026-04-08 20:42 |
|---|---|
| Airport | Austin Bergstrom International Airport (KAUS) |
| Time | Latitude | Longitude | Altitude | Speed | Heading |
|---|---|---|---|---|---|
| 2026-04-08 19:17 | 35.39445 | -97.59599 | 1304 ft | 0 kts | 1° |
| 2026-04-08 19:32 | 35.39441 | -97.59599 | 1304 ft | 2 kts | 1° |
| 2026-04-08 19:33 | 35.39425 | -97.59600 | 1304 ft | 3 kts | 1° |
| 2026-04-08 19:33 | 35.39407 | -97.59601 | 1304 ft | 2 kts | 2° |
| 2026-04-08 19:33 | 35.39388 | -97.59602 | 1304 ft | 3 kts | 6° |
| 2026-04-08 19:33 | 35.39368 | -97.59606 | 1304 ft | 3 kts | 17° |
| 2026-04-08 19:34 | 35.39350 | -97.59616 | 1304 ft | 3 kts | 33° |
| 2026-04-08 19:34 | 35.39334 | -97.59633 | 1304 ft | 3 kts | 49° |
| 2026-04-08 19:34 | 35.39323 | -97.59654 | 1304 ft | 3 kts | 64° |
| 2026-04-08 19:34 | 35.39323 | -97.59652 | 1304 ft | 1 kts | 69° |
| 2026-04-08 19:35 | 35.39324 | -97.59651 | 1304 ft | 0 kts | 69° |
| 2026-04-08 19:44 | 35.39325 | -97.59648 | 1304 ft | 2 kts | 69° |
| 2026-04-08 19:45 | 35.39316 | -97.59599 | 1304 ft | 9 kts | 107° |
| 2026-04-08 19:45 | 35.39270 | -97.59560 | 1304 ft | 9 kts | 179° |
| 2026-04-08 19:45 | 35.39237 | -97.59508 | 1304 ft | 11 kts | 89° |
| 2026-04-08 19:45 | 35.39238 | -97.59371 | 1304 ft | 18 kts | 90° |
| 2026-04-08 19:46 | 35.39238 | -97.59219 | 1304 ft | 17 kts | 90° |
| 2026-04-08 19:46 | 35.39239 | -97.59094 | 1304 ft | 12 kts | 77° |
| 2026-04-08 19:46 | 35.39320 | -97.59064 | 1304 ft | 19 kts | 359° |
| 2026-04-08 19:46 | 35.39496 | -97.59065 | 1304 ft | 26 kts | 360° |
| 2026-04-08 19:47 | 35.39668 | -97.59065 | 1304 ft | 24 kts | 359° |
| 2026-04-08 19:47 | 35.39826 | -97.59064 | 1304 ft | 22 kts | 360° |
| 2026-04-08 19:47 | 35.39979 | -97.59064 | 1304 ft | 21 kts | 360° |
| 2026-04-08 19:47 | 35.40145 | -97.59065 | 1304 ft | 25 kts | 360° |
| 2026-04-08 19:48 | 35.40312 | -97.59065 | 1304 ft | 23 kts | 360° |
| 2026-04-08 19:48 | 35.40456 | -97.59066 | 1304 ft | 11 kts | 360° |
| 2026-04-08 19:48 | 35.40496 | -97.59009 | 1304 ft | 11 kts | 92° |
| 2026-04-08 19:48 | 35.40493 | -97.58922 | 1304 ft | 8 kts | 91° |
| 2026-04-08 19:49 | 35.40466 | -97.58893 | 1304 ft | 3 kts | 181° |
| 2026-04-08 19:49 | 35.40457 | -97.58892 | 1304 ft | 0 kts | 178° |
| 2026-04-08 19:49 | 35.40456 | -97.58892 | 1304 ft | 0 kts | 178° |
| 2026-04-08 19:49 | 35.40436 | -97.58891 | 1304 ft | 17 kts | 179° |
| 2026-04-08 19:50 | 35.40098 | -97.58894 | 1304 ft | 79 kts | 180° |
| 2026-04-08 19:50 | 35.39359 | -97.58895 | 1310 ft | 130 kts | 180° |
| 2026-04-08 19:50 | 35.38432 | -97.58904 | 1806 ft | 135 kts | 181° |
| 2026-04-08 19:50 | 35.37478 | -97.58942 | 2395 ft | 139 kts | 182° |
| 2026-04-08 19:51 | 35.36470 | -97.59014 | 2853 ft | 153 kts | 182° |
| 2026-04-08 19:51 | 35.35338 | -97.59086 | 3163 ft | 176 kts | 182° |
| 2026-04-08 19:51 | 35.34053 | -97.59161 | 3527 ft | 192 kts | 182° |
| 2026-04-08 19:51 | 35.32681 | -97.59064 | 3921 ft | 207 kts | 163° |
| 2026-04-08 19:52 | 35.31463 | -97.57966 | 4325 ft | 236 kts | 130° |
| 2026-04-08 19:52 | 35.30862 | -97.55974 | 4789 ft | 267 kts | 100° |
| 2026-04-08 19:52 | 35.30927 | -97.53644 | 5593 ft | 279 kts | 88° |
| 2026-04-08 19:52 | 35.31173 | -97.51270 | 6505 ft | 283 kts | 87° |
| 2026-04-08 19:53 | 35.31291 | -97.48858 | 7437 ft | 283 kts | 97° |
| 2026-04-08 19:53 | 35.30753 | -97.46579 | 8378 ft | 279 kts | 123° |
| 2026-04-08 19:53 | 35.29452 | -97.44868 | 9311 ft | 276 kts | 149° |
| 2026-04-08 19:53 | 35.27689 | -97.44081 | 10225 ft | 275 kts | 175° |
| 2026-04-08 19:54 | 35.25762 | -97.44249 | 11004 ft | 285 kts | 192° |
| 2026-04-08 19:54 | 35.23735 | -97.44683 | 11498 ft | 306 kts | 187° |
| 2026-04-08 19:54 | 35.21565 | -97.44803 | 12196 ft | 317 kts | 182° |
| 2026-04-08 19:54 | 35.19332 | -97.44837 | 13016 ft | 325 kts | 182° |
| 2026-04-08 19:55 | 35.17032 | -97.44868 | 13746 ft | 335 kts | 182° |
| 2026-04-08 19:55 | 35.14657 | -97.44903 | 14504 ft | 345 kts | 182° |
| 2026-04-08 19:55 | 35.12225 | -97.44938 | 15281 ft | 354 kts | 182° |
| 2026-04-08 19:55 | 35.09736 | -97.44974 | 16087 ft | 362 kts | 182° |
| 2026-04-08 19:56 | 35.07225 | -97.45011 | 16910 ft | 367 kts | 181° |
| 2026-04-08 19:56 | 35.04642 | -97.45048 | 17777 ft | 372 kts | 182° |
| 2026-04-08 19:56 | 35.02034 | -97.45086 | 18619 ft | 376 kts | 182° |
| 2026-04-08 19:56 | 34.99403 | -97.45124 | 19455 ft | 381 kts | 182° |
| 2026-04-08 19:57 | 34.96735 | -97.45163 | 20257 ft | 386 kts | 182° |
| 2026-04-08 19:57 | 34.94026 | -97.45200 | 21054 ft | 390 kts | 182° |
| 2026-04-08 19:57 | 34.91300 | -97.45239 | 21801 ft | 395 kts | 182° |
| 2026-04-08 19:57 | 34.88564 | -97.45278 | 22498 ft | 400 kts | 182° |
| 2026-04-08 19:58 | 34.85766 | -97.45319 | 23188 ft | 405 kts | 183° |
| 2026-04-08 19:58 | 34.82929 | -97.45360 | 23824 ft | 410 kts | 183° |
| 2026-04-08 19:58 | 34.80054 | -97.45402 | 24449 ft | 416 kts | 183° |
| 2026-04-08 19:58 | 34.77144 | -97.45444 | 25070 ft | 420 kts | 183° |
| 2026-04-08 19:59 | 34.74203 | -97.45487 | 25677 ft | 424 kts | 184° |
| 2026-04-08 19:59 | 34.71235 | -97.45530 | 26262 ft | 428 kts | 184° |
| 2026-04-08 19:59 | 34.68237 | -97.45573 | 26816 ft | 433 kts | 184° |
| 2026-04-08 19:59 | 34.65215 | -97.45617 | 27362 ft | 436 kts | 184° |
| 2026-04-08 20:00 | 34.62165 | -97.45661 | 27890 ft | 440 kts | 184° |
| 2026-04-08 20:00 | 34.59122 | -97.45705 | 28393 ft | 444 kts | 184° |
| 2026-04-08 20:00 | 34.56025 | -97.45750 | 28885 ft | 447 kts | 184° |
| 2026-04-08 20:00 | 34.52888 | -97.45795 | 29366 ft | 451 kts | 184° |
| 2026-04-08 20:01 | 34.49742 | -97.45840 | 29832 ft | 454 kts | 184° |
| 2026-04-08 20:01 | 34.46569 | -97.45885 | 30279 ft | 457 kts | 184° |
| 2026-04-08 20:01 | 34.43369 | -97.45931 | 30708 ft | 461 kts | 184° |
| 2026-04-08 20:01 | 34.40150 | -97.45977 | 31118 ft | 464 kts | 184° |
| 2026-04-08 20:02 | 34.36953 | -97.46022 | 31512 ft | 467 kts | 184° |
| 2026-04-08 20:02 | 34.33691 | -97.45983 | 31896 ft | 471 kts | 180° |
| 2026-04-08 20:02 | 34.30407 | -97.45620 | 32262 ft | 476 kts | 175° |
| 2026-04-08 20:02 | 34.27137 | -97.44884 | 32660 ft | 480 kts | 171° |
| 2026-04-08 20:03 | 34.23891 | -97.43944 | 33137 ft | 480 kts | 169° |
| 2026-04-08 20:03 | 34.20653 | -97.42951 | 33567 ft | 480 kts | 169° |
| 2026-04-08 20:03 | 34.17407 | -97.41968 | 33977 ft | 480 kts | 169° |
| 2026-04-08 20:03 | 34.14166 | -97.40997 | 34379 ft | 480 kts | 169° |
| 2026-04-08 20:04 | 34.10921 | -97.40031 | 34768 ft | 480 kts | 169° |
| 2026-04-08 20:04 | 34.07670 | -97.39067 | 35146 ft | 480 kts | 169° |
| 2026-04-08 20:04 | 34.04422 | -97.38107 | 35512 ft | 481 kts | 169° |
| 2026-04-08 20:04 | 34.01180 | -97.37151 | 35867 ft | 481 kts | 170° |
| 2026-04-08 20:05 | 33.97928 | -97.36193 | 36211 ft | 481 kts | 170° |
| 2026-04-08 20:05 | 33.94677 | -97.35227 | 36547 ft | 481 kts | 170° |
| 2026-04-08 20:05 | 33.91424 | -97.34264 | 36872 ft | 482 kts | 170° |
| 2026-04-08 20:05 | 33.88173 | -97.33305 | 37188 ft | 482 kts | 170° |
| 2026-04-08 20:06 | 33.84914 | -97.32345 | 37536 ft | 481 kts | 170° |
| 2026-04-08 20:06 | 33.81661 | -97.31389 | 37821 ft | 482 kts | 170° |
| 2026-04-08 20:06 | 33.78399 | -97.30431 | 38109 ft | 482 kts | 170° |
| 2026-04-08 20:06 | 33.75136 | -97.29474 | 38392 ft | 482 kts | 170° |
| 2026-04-08 20:07 | 33.71910 | -97.28528 | 38558 ft | 485 kts | 171° |
| 2026-04-08 20:07 | 33.68631 | -97.27568 | 38816 ft | 485 kts | 171° |
| 2026-04-08 20:07 | 33.65351 | -97.26608 | 39121 ft | 485 kts | 171° |
| 2026-04-08 20:07 | 33.62062 | -97.25647 | 39166 ft | 488 kts | 171° |
| 2026-04-08 20:08 | 33.55457 | -97.23719 | 39168 ft | 487 kts | 171° |
| 2026-04-08 20:08 | 33.48913 | -97.21811 | 39164 ft | 483 kts | 171° |
| 2026-04-08 20:09 | 33.42371 | -97.19907 | 39157 ft | 484 kts | 171° |
| 2026-04-08 20:09 | 33.35829 | -97.18006 | 39150 ft | 484 kts | 171° |
| 2026-04-08 20:10 | 33.29285 | -97.16107 | 39146 ft | 484 kts | 171° |
| 2026-04-08 20:10 | 33.22788 | -97.14225 | 39142 ft | 484 kts | 171° |
| 2026-04-08 20:11 | 33.16237 | -97.12330 | 39142 ft | 484 kts | 171° |
| 2026-04-08 20:11 | 33.09696 | -97.10441 | 39142 ft | 484 kts | 171° |
| 2026-04-08 20:12 | 33.03151 | -97.08553 | 39142 ft | 484 kts | 171° |
| 2026-04-08 20:12 | 32.96601 | -97.06667 | 39147 ft | 484 kts | 171° |
| 2026-04-08 20:13 | 32.90060 | -97.04786 | 39147 ft | 483 kts | 171° |
| 2026-04-08 20:13 | 32.83572 | -97.02923 | 39151 ft | 482 kts | 171° |
| 2026-04-08 20:14 | 32.77048 | -97.01053 | 39160 ft | 482 kts | 172° |
| 2026-04-08 20:14 | 32.70521 | -96.99184 | 39164 ft | 482 kts | 172° |
| 2026-04-08 20:15 | 32.64001 | -96.97312 | 39162 ft | 482 kts | 172° |
| 2026-04-08 20:15 | 32.57484 | -96.95453 | 39155 ft | 482 kts | 172° |
| 2026-04-08 20:16 | 32.51007 | -96.93610 | 39145 ft | 482 kts | 172° |
| 2026-04-08 20:16 | 32.44451 | -96.91747 | 39142 ft | 481 kts | 172° |
| 2026-04-08 20:17 | 32.37935 | -96.90648 | 39134 ft | 471 kts | 185° |
| 2026-04-08 20:17 | 32.31480 | -96.91365 | 39126 ft | 462 kts | 197° |
| 2026-04-08 20:18 | 32.25173 | -96.92788 | 39124 ft | 461 kts | 197° |
| 2026-04-08 20:19 | 32.15727 | -96.94864 | 39132 ft | 462 kts | 197° |
| 2026-04-08 20:19 | 32.09400 | -96.96232 | 39144 ft | 462 kts | 197° |
| 2026-04-08 20:20 | 32.03089 | -96.97594 | 39144 ft | 459 kts | 198° |
| 2026-04-08 20:20 | 31.99930 | -96.98277 | 38802 ft | 461 kts | 198° |
| 2026-04-08 20:20 | 31.96792 | -96.98954 | 38261 ft | 458 kts | 198° |
| 2026-04-08 20:20 | 31.93637 | -96.99633 | 37536 ft | 460 kts | 198° |
| 2026-04-08 20:21 | 31.90522 | -97.00303 | 36830 ft | 461 kts | 197° |
| 2026-04-08 20:21 | 31.87360 | -97.00982 | 36100 ft | 463 kts | 197° |
| 2026-04-08 20:21 | 31.84186 | -97.01664 | 35340 ft | 464 kts | 197° |
| 2026-04-08 20:21 | 31.80990 | -97.02353 | 34559 ft | 467 kts | 196° |
| 2026-04-08 20:22 | 31.77788 | -97.03039 | 33761 ft | 469 kts | 196° |
| 2026-04-08 20:22 | 31.74569 | -97.03727 | 32935 ft | 471 kts | 195° |
| 2026-04-08 20:22 | 31.71338 | -97.04417 | 32080 ft | 473 kts | 195° |
| 2026-04-08 20:22 | 31.68107 | -97.05105 | 31428 ft | 470 kts | 195° |
| 2026-04-08 20:23 | 31.64900 | -97.05788 | 30794 ft | 466 kts | 195° |
| 2026-04-08 20:23 | 31.61718 | -97.06466 | 30170 ft | 463 kts | 195° |
| 2026-04-08 20:23 | 31.58565 | -97.07137 | 29546 ft | 458 kts | 195° |
| 2026-04-08 20:23 | 31.55439 | -97.07802 | 28906 ft | 454 kts | 194° |
| 2026-04-08 20:24 | 31.52367 | -97.08592 | 28167 ft | 449 kts | 199° |
| 2026-04-08 20:24 | 31.49433 | -97.09651 | 27536 ft | 442 kts | 203° |
| 2026-04-08 20:24 | 31.46546 | -97.10820 | 26911 ft | 437 kts | 203° |
| 2026-04-08 20:24 | 31.43678 | -97.11961 | 26292 ft | 432 kts | 202° |
| 2026-04-08 20:25 | 31.40839 | -97.13074 | 25700 ft | 427 kts | 202° |
| 2026-04-08 20:25 | 31.38047 | -97.14163 | 25226 ft | 419 kts | 202° |
| 2026-04-08 20:25 | 31.35276 | -97.15240 | 24503 ft | 418 kts | 202° |
| 2026-04-08 20:25 | 31.32529 | -97.16305 | 23889 ft | 414 kts | 201° |
| 2026-04-08 20:26 | 31.29804 | -97.17362 | 23282 ft | 410 kts | 201° |
| 2026-04-08 20:26 | 31.27104 | -97.18408 | 22682 ft | 407 kts | 201° |
| 2026-04-08 20:26 | 31.24465 | -97.19432 | 22094 ft | 403 kts | 201° |
| 2026-04-08 20:26 | 31.21816 | -97.20470 | 21502 ft | 399 kts | 201° |
| 2026-04-08 20:27 | 31.19192 | -97.21498 | 20914 ft | 396 kts | 201° |
| 2026-04-08 20:27 | 31.16585 | -97.22515 | 20329 ft | 393 kts | 201° |
| 2026-04-08 20:27 | 31.14839 | -97.23195 | 19936 ft | 391 kts | 201° |
| 2026-04-08 20:27 | 31.11435 | -97.24517 | 19170 ft | 386 kts | 201° |
| 2026-04-08 20:28 | 31.09749 | -97.25173 | 18791 ft | 384 kts | 201° |
| 2026-04-08 20:28 | 31.06381 | -97.26481 | 18016 ft | 379 kts | 201° |
| 2026-04-08 20:28 | 31.04730 | -97.27122 | 17626 ft | 377 kts | 201° |
| 2026-04-08 20:28 | 31.02242 | -97.28088 | 16945 ft | 375 kts | 200° |
| 2026-04-08 20:29 | 30.99776 | -97.29045 | 16358 ft | 371 kts | 200° |
| 2026-04-08 20:29 | 30.97363 | -97.29980 | 15887 ft | 356 kts | 200° |
| 2026-04-08 20:29 | 30.95074 | -97.30865 | 15839 ft | 337 kts | 200° |
| 2026-04-08 20:29 | 30.92899 | -97.31711 | 15804 ft | 320 kts | 200° |
| 2026-04-08 20:30 | 30.90812 | -97.32524 | 15504 ft | 313 kts | 200° |
| 2026-04-08 20:30 | 30.88778 | -97.33322 | 15050 ft | 312 kts | 200° |
| 2026-04-08 20:30 | 30.86727 | -97.34125 | 14593 ft | 310 kts | 200° |
| 2026-04-08 20:30 | 30.84682 | -97.34924 | 14135 ft | 310 kts | 200° |
| 2026-04-08 20:31 | 30.82636 | -97.35723 | 13674 ft | 310 kts | 200° |
| 2026-04-08 20:31 | 30.80608 | -97.36590 | 13208 ft | 310 kts | 204° |
| 2026-04-08 20:31 | 30.78651 | -97.37649 | 12737 ft | 310 kts | 207° |
| 2026-04-08 20:31 | 30.76721 | -97.38804 | 12256 ft | 311 kts | 208° |
| 2026-04-08 20:32 | 30.74809 | -97.39937 | 11773 ft | 303 kts | 207° |
| 2026-04-08 20:32 | 30.72959 | -97.41006 | 11306 ft | 292 kts | 207° |
| 2026-04-08 20:32 | 30.71138 | -97.42048 | 10852 ft | 292 kts | 207° |
| 2026-04-08 20:32 | 30.69304 | -97.43094 | 10388 ft | 294 kts | 206° |
| 2026-04-08 20:33 | 30.67471 | -97.44138 | 10015 ft | 290 kts | 206° |
| 2026-04-08 20:33 | 30.65718 | -97.45139 | 9927 ft | 272 kts | 206° |
| 2026-04-08 20:33 | 30.64022 | -97.46108 | 9515 ft | 273 kts | 206° |
| 2026-04-08 20:33 | 30.62306 | -97.47086 | 9059 ft | 276 kts | 206° |
| 2026-04-08 20:34 | 30.60595 | -97.48059 | 8631 ft | 277 kts | 205° |
| 2026-04-08 20:34 | 30.58860 | -97.49044 | 8200 ft | 278 kts | 205° |
| 2026-04-08 20:34 | 30.57124 | -97.50031 | 7768 ft | 273 kts | 205° |
| 2026-04-08 20:34 | 30.55443 | -97.50984 | 7359 ft | 268 kts | 205° |
| 2026-04-08 20:35 | 30.53769 | -97.51933 | 6947 ft | 267 kts | 205° |
| 2026-04-08 20:35 | 30.52096 | -97.52882 | 6535 ft | 266 kts | 205° |
| 2026-04-08 20:35 | 30.50435 | -97.53822 | 6123 ft | 264 kts | 204° |
| 2026-04-08 20:35 | 30.48787 | -97.54756 | 5717 ft | 263 kts | 204° |
| 2026-04-08 20:36 | 30.47150 | -97.55683 | 5312 ft | 261 kts | 204° |
| 2026-04-08 20:36 | 30.45534 | -97.56598 | 5119 ft | 256 kts | 204° |
| 2026-04-08 20:36 | 30.43989 | -97.57577 | 5046 ft | 249 kts | 211° |
| 2026-04-08 20:36 | 30.42642 | -97.58806 | 4855 ft | 244 kts | 221° |
| 2026-04-08 20:37 | 30.41460 | -97.60180 | 4623 ft | 239 kts | 224° |
| 2026-04-08 20:37 | 30.40337 | -97.61523 | 4413 ft | 229 kts | 224° |
| 2026-04-08 20:37 | 30.39261 | -97.62810 | 4202 ft | 216 kts | 224° |
| 2026-04-08 20:37 | 30.38226 | -97.64012 | 4014 ft | 204 kts | 219° |
| 2026-04-08 20:38 | 30.37123 | -97.64985 | 3763 ft | 196 kts | 212° |
| 2026-04-08 20:38 | 30.35999 | -97.65856 | 3508 ft | 192 kts | 211° |
| 2026-04-08 20:38 | 30.34906 | -97.66696 | 3283 ft | 184 kts | 211° |
| 2026-04-08 20:38 | 30.33861 | -97.67499 | 3033 ft | 177 kts | 211° |
| 2026-04-08 20:39 | 30.32805 | -97.68140 | 2813 ft | 166 kts | 194° |
| 2026-04-08 20:39 | 30.31678 | -97.68263 | 2587 ft | 160 kts | 177° |
| 2026-04-08 20:39 | 30.30583 | -97.68207 | 2349 ft | 155 kts | 176° |
| 2026-04-08 20:39 | 30.29530 | -97.68163 | 2155 ft | 148 kts | 176° |
| 2026-04-08 20:40 | 30.28557 | -97.68131 | 1982 ft | 137 kts | 176° |
| 2026-04-08 20:40 | 30.27621 | -97.68103 | 1772 ft | 133 kts | 177° |
| 2026-04-08 20:40 | 30.26711 | -97.68078 | 1602 ft | 129 kts | 177° |
| 2026-04-08 20:40 | 30.25812 | -97.68054 | 1436 ft | 129 kts | 177° |
| 2026-04-08 20:41 | 30.24912 | -97.68030 | 1262 ft | 130 kts | 176° |
| 2026-04-08 20:41 | 30.24006 | -97.68012 | 1093 ft | 130 kts | 178° |
| 2026-04-08 20:41 | 30.23102 | -97.67985 | 912 ft | 131 kts | 177° |
| 2026-04-08 20:41 | 30.22193 | -97.67962 | 746 ft | 131 kts | 178° |
| 2026-04-08 20:42 | 30.21285 | -97.67936 | 580 ft | 131 kts | 178° |
| 2026-04-08 20:42 | 30.20445 | -97.67912 | 551 ft | 99 kts | 178° |
| 2026-04-08 20:42 | 30.19966 | -97.67900 | 550 ft | 40 kts | 179° |
| 2026-04-08 20:42 | 30.19799 | -97.67894 | 550 ft | 11 kts | 177° |
| 2026-04-08 20:43 | 30.19754 | -97.67866 | 550 ft | 10 kts | 21° |
| 2026-04-08 20:43 | 30.19819 | -97.67835 | 550 ft | 10 kts | 33° |
| 2026-04-08 20:43 | 30.19876 | -97.67790 | 550 ft | 10 kts | 44° |
| 2026-04-08 20:43 | 30.19885 | -97.67716 | 550 ft | 9 kts | 90° |
| 2026-04-08 20:44 | 30.19885 | -97.67643 | 550 ft | 9 kts | 88° |
| 2026-04-08 20:44 | 30.19887 | -97.67571 | 550 ft | 9 kts | 88° |
| 2026-04-08 20:44 | 30.19889 | -97.67504 | 550 ft | 8 kts | 88° |
| 2026-04-08 20:44 | 30.19891 | -97.67439 | 550 ft | 8 kts | 89° |
| 2026-04-08 20:45 | 30.19894 | -97.67349 | 550 ft | 13 kts | 62° |
| 2026-04-08 20:45 | 30.19978 | -97.67337 | 550 ft | 13 kts | 359° |
| 2026-04-08 20:45 | 30.20064 | -97.67338 | 550 ft | 12 kts | 359° |
| 2026-04-08 20:45 | 30.20093 | -97.67268 | 550 ft | 12 kts | 94° |
| 2026-04-08 20:46 | 30.20094 | -97.67177 | 550 ft | 11 kts | 88° |
| 2026-04-08 20:46 | 30.20098 | -97.67098 | 550 ft | 8 kts | 72° |
| 2026-04-08 20:46 | 30.20144 | -97.67088 | 550 ft | 6 kts | 358° |
| 2026-04-08 20:46 | 30.20171 | -97.67088 | 550 ft | 0 kts | 1° |